Terminal Aerodrome Forecast
Issued by NWS Portland, OR

Home | Current Version | Previous Version | Text Only | Print | Product List | Glossary On
Versions: 1 2 3 4 5 6 7 8 9 10 11 12 13 14 15
000
FTUS46 KPQR 232336
TAFSLE
TAF
KSLE 232336Z 2400/2424 VRB04KT P6SM SCT100
     FM240800 VRB03KT P6SM SCT120=

USA.gov is the U.S. government's official web portal to all federal, state and local government web resources and services.